(°C)
(°C)
DDK
DDN
DDN
D
D
D
D
(km/h)
1-5
2-6
2-7
3-7
3-6
3-7
3-8
(mm)
0
0
0
0
0
0
0
(%)
0
0
0
0
0
0
0

Napfelkelte

/ 23.3°
sun-icon
UV 1
08:00
18:29
Hold (növekvő félhold) (144°)
18:03
03:24

METAR 55.03°É 82.6°K (UNNT)-ért

Idő Feltételek Hőmérséklet/
Harmatpont
Szél Látási viszonyok Időjárás Felhők Légnyomás Módosítás Nyers
VFR 9°C / 1°C variable 2kt >10km - Clouds and Visibility OK 1024 No Significant change. Runway 25: Clear and dry, 51-100% contamination with <1mm, friction coefficient 0.70. Runway 16: Clear and dry, 51-100% contamination with <1mm, friction coefficient 0.70. UNNT 170730Z VRB01MPS CAVOK 09/01 Q1024 R25/090070 R16/090070 NOSIG RMK QFE758/1010
VFR 7°C / 2°C variable 2kt 9000m - Clear 1024 No Significant change. Runway 25: Clear and dry, 51-100% contamination with <1mm, friction coefficient 0.70. Runway 16: Clear and dry, 51-100% contamination with <1mm, friction coefficient 0.70. UNNT 170700Z VRB01MPS 9000 NSC 07/02 Q1024 R25/090070 R16/090070 NOSIG RMK QFE758/1011
VFR 4°C / 3°C variable 2kt 9000m - Clear 1024 No Significant change. Runway 25: Clear and dry, 51-100% contamination with <1mm, friction coefficient 0.70. Runway 16: Clear and dry, 51-100% contamination with <1mm, friction coefficient 0.70. UNNT 170630Z VRB01MPS 9000 NSC 04/03 Q1024 R25/090070 R16/090070 NOSIG RMK QFE758/1011
IFR 2°C / 2°C variable 2kt 4700m Mist Vertical Visibility of 0ft. 1024 No Significant change. Runway 25: Clear and dry, 51-100% contamination with <1mm, friction coefficient 0.70. Runway 16: Clear and dry, 51-100% contamination with <1mm, friction coefficient 0.70. UNNT 170600Z VRB01MPS 4700 1300N BR SCT002 02/02 Q1024 R25/090070 R16/090070 NOSIG RMK QFE758/1011
LIFR 1°C / 1°C variable 2kt 450m. Runway 25: Visual range is 1000m and increasing. Fog Vertical Visibility of 0ft. 1024 No Significant change. Runway 25: Clear and dry, 51-100% contamination with <1mm, friction coefficient 0.70. Runway 16: Clear and dry, 51-100% contamination with <1mm, friction coefficient 0.70. UNNT 170530Z VRB01MPS 0450 0350S R25/1000U FG VV002 01/01 Q1024 R25/090070 R16/090070 NOSIG RMK QFE758/1011
LIFR 0°C / 0°C 290º 4kt 260m. Runway 25: Visual range is 550m. freezing Fog Vertical Visibility of 0ft. 1025 No Significant change. Runway 25: Clear and dry, 51-100% contamination with <1mm, friction coefficient 0.70. Runway 16: Clear and dry, 51-100% contamination with <1mm, friction coefficient 0.70. UNNT 170500Z 29002MPS 0250 R25/0550N FZFG VV001 M00/M00 Q1025 R25/090070 R16/090070 NOSIG RMK QBB050 QFE758/1011
LIFR -1°C / -1°C variable 0kt 190m. Runway 25: Visual range is 800m. freezing Fog Vertical Visibility of 0ft. 1025 No Significant change. Runway 25: Clear and dry, 51-100% contamination with <1mm, friction coefficient 0.70. Runway 16: Clear and dry, 51-100% contamination with <1mm, friction coefficient 0.70. UNNT 170430Z 00000MPS 0200 0150SE R25/0800N FZFG VV001 M01/M01 Q1025 R25/090070 R16/090070 NOSIG RMK QBB050 QFE758/1011
LIFR -2°C / -2°C 330º 2kt 140m. Runway 25: Visual range is 225m. freezing Fog Vertical Visibility of 0ft. 1025 No Significant change. Runway 25: Clear and dry, 51-100% contamination with <1mm, friction coefficient 0.70. Runway 16: Clear and dry, 51-100% contamination with <1mm, friction coefficient 0.70. UNNT 170400Z 33001MPS 0150 R25/0225N FZFG VV002 M02/M02 Q1025 R25/090070 R16/090070 NOSIG RMK QFE758/1011
LIFR -3°C / -3°C 290º 2kt 190m. Runway 25: Visual range is 450m and decreasing. freezing Fog Vertical Visibility of 0ft. 1025 No Significant change. Runway 25: Clear and dry, 51-100% contamination with <1mm, friction coefficient 0.70. Runway 16: Clear and dry, 51-100% contamination with <1mm, friction coefficient 0.70. UNNT 170330Z 29001MPS 0200 0150SE R25/0450D FZFG VV001 M03/M03 Q1025 R25/090070 R16/090070 NOSIG RMK QBB050 QFE758/1011
LIFR -4°C / -4°C 290º 2kt 260m. Runway 25: Visual range is 400m and decreasing. freezing Fog Vertical Visibility of 0ft. 1025 No Significant change. Runway 25: Clear and dry, 51-100% contamination with <1mm, friction coefficient 0.70. Runway 16: Clear and dry, 51-100% contamination with <1mm, friction coefficient 0.70. UNNT 170300Z 29001MPS 0250 0150E R25/0400D FZFG VV002 M04/M04 Q1025 R25/090070 R16/090070 NOSIG RMK QFE758/1011
LIFR -4°C / -5°C variable 0kt 350m. Runway 25: Visual range is 750m. freezing Fog Vertical Visibility of 0ft. 1025 No Significant change. Runway 25: Clear and dry, 51-100% contamination with <1mm, friction coefficient 0.70. Runway 16: Clear and dry, 51-100% contamination with <1mm, friction coefficient 0.70. UNNT 170230Z 00000MPS 0350 0300SE R25/0750N FZFG VV001 M04/M05 Q1025 R25/090070 R16/090070 NOSIG RMK QBB050 QFE758/1011
LIFR -5°C / -5°C variable 0kt 260m. Runway 16: Visual range is 325m. Runway 07: Visual range is 450m. freezing Fog Vertical Visibility of 0ft. 1025 No Significant change. Runway 16: Clear and dry, 51-100% contamination with <1mm, friction coefficient 0.70. Runway 07: Clear and dry, 51-100% contamination with <1mm, friction coefficient 0.70. UNNT 170200Z 00000MPS 0250 0150S R16/0325N R07/0450N FZFG VV001 M05/M05 Q1025 R16/090070 R07/090070 NOSIG RMK QBB040 QFE758/1011
LIFR -6°C / -6°C 250º 2kt 140m. Runway 16: Visual range is 300m. Runway 07: Visual range is 200m. freezing Fog Vertical Visibility of 0ft. 1024 No Significant change. Runway 16: Clear and dry, 51-100% contamination with <1mm, friction coefficient 0.70. Runway 07: Clear and dry, 51-100% contamination with <1mm, friction coefficient 0.70. UNNT 170130Z 25001MPS 0150 R16/0300N R07/0200N FZFG VV001 M06/M06 Q1024 R16/090070 R07/090070 NOSIG RMK QBB050 QFE758/1011
LIFR -6°C / -6°C 260º 4kt 190m. Runway 25: Visual range is 1100m. freezing Fog Vertical Visibility of 0ft. 1024 No Significant change. Runway 25: Clear and dry, 51-100% contamination with <1mm, friction coefficient 0.70. Runway 16: Clear and dry, 51-100% contamination with <1mm, friction coefficient 0.70. UNNT 170100Z 26002MPS 0200 0100N R25/1100N FZFG VV001 M06/M06 Q1024 R25/090070 R16/090070 NOSIG RMK QBB040 QFE758/1011
LIFR -5°C / -6°C variable 0kt 100m. Runway 16: Visual range is 175m. Runway 07: Visual range is 300m. freezing Fog Vertical Visibility of 0ft. 1024 No Significant change. Runway 16: Clear and dry, 51-100% contamination with <1mm, friction coefficient 0.70. Runway 07: Clear and dry, 51-100% contamination with <1mm, friction coefficient 0.70. UNNT 170030Z 00000MPS 0100 0050S R16/0175N R07/0300N FZFG VV001 M05/M06 Q1024 R16/090070 R07/090070 NOSIG RMK QBB050 QFE758/1011
LIFR -5°C / -6°C variable 0kt 260m. Runway 16: Visual range is 900m and decreasing. Runway 07: Visual range is 375m. freezing Fog Vertical Visibility of 0ft. 1024 No Significant change. Runway 16: Clear and dry, 51-100% contamination with <1mm, friction coefficient 0.70. Runway 07: Clear and dry, 51-100% contamination with <1mm, friction coefficient 0.70. UNNT 170000Z 00000MPS 0250 0100SE R16/0900D R07/0375N FZFG VV001 M05/M06 Q1024 R16/090070 R07/090070 NOSIG RMK QBB040 QFE758/1011
LIFR -5°C / -5°C 260º 2kt 140m. Runway 16: Visual range is 650m. Runway 07: Visual range is 550m. freezing Fog Vertical Visibility of 0ft. 1024 No Significant change. Runway 16: Clear and dry, 51-100% contamination with <1mm, friction coefficient 0.70. Runway 07: Clear and dry, 51-100% contamination with <1mm, friction coefficient 0.70. UNNT 162330Z 26001MPS 0150 R16/0650N R07/0550N FZFG VV001 M05/M05 Q1024 R16/090070 R07/090070 NOSIG RMK QBB050 QFE758/1011
LIFR -6°C / -6°C variable 2kt 140m. Runway 16: Visual range is 550m. Runway 07: Visual range is 800m. freezing Fog Vertical Visibility of 0ft. 1024 No Significant change. Runway 16: Clear and dry, 51-100% contamination with <1mm, friction coefficient 0.70. Runway 07: Clear and dry, 51-100% contamination with <1mm, friction coefficient 0.70. UNNT 162300Z VRB01MPS 0150 R16/0550N R07/0800N FZFG VV001 M06/M06 Q1024 R16/090070 R07/090070 NOSIG RMK QBB050 QFE758/1011
LIFR -6°C / -6°C 280º 2kt 140m. Runway 16: Visual range is 700m and increasing. Runway 07: Visual range is 550m and increasing. freezing Fog Vertical Visibility of 0ft. 1024 No Significant change. Runway 16: Clear and dry, 51-100% contamination with <1mm, friction coefficient 0.70. Runway 07: Clear and dry, 51-100% contamination with <1mm, friction coefficient 0.70. UNNT 162230Z 28001MPS 0150 R16/0700U R07/0550U FZFG VV001 M06/M06 Q1024 R16/090070 R07/090070 NOSIG RMK QBB050 QFE758/1011
LIFR -5°C / -6°C 290º 2kt 140m. Runway 16: Visual range is 750m and decreasing. Runway 07: Visual range is 600m and decreasing. freezing Fog Vertical Visibility of 0ft. 1024 No Significant change. Runway 16: Clear and dry, 51-100% contamination with <1mm, friction coefficient 0.70. Runway 07: Clear and dry, 51-100% contamination with <1mm, friction coefficient 0.70. UNNT 162200Z 29001MPS 0150 0100SE R16/0750D R07/0600D FZFG VV001 M05/M06 Q1024 R16/090070 R07/090070 NOSIG RMK QBB050 QFE758/1011
LIFR -6°C / -6°C 280º 2kt 190m. Runway 16: Visual range is 650m. Runway 07: Visual range is 800m and decreasing. freezing Fog Vertical Visibility of 0ft. 1025 No Significant change. Runway 16: Clear and dry, 51-100% contamination with <1mm, friction coefficient 0.70. Runway 07: Clear and dry, 51-100% contamination with <1mm, friction coefficient 0.70. UNNT 162130Z 28001MPS 0200 0150S R16/0650N R07/0800D FZFG VV001 M06/M06 Q1025 R16/090070 R07/090070 NOSIG RMK QBB050 QFE758/1011
LIFR -4°C / -4°C 310º 2kt 140m. Runway 16: Visual range is 1200m and decreasing. Runway 07: Visual range is 550m. freezing Fog Vertical Visibility of 0ft. 1025 No Significant change. Runway 16: Clear and dry, 51-100% contamination with <1mm, friction coefficient 0.70. Runway 07: Clear and dry, 51-100% contamination with <1mm, friction coefficient 0.70. UNNT 162100Z 31001MPS 0150 0100S R16/1200D R07/0550N FZFG VV001 M04/M04 Q1025 R16/090070 R07/090070 NOSIG RMK QBB040 QFE758/1011
LIFR -5°C / -5°C 300º 4kt 140m. Runway 16: Visual range is 650m. Runway 07: Visual range is 650m. freezing Fog Vertical Visibility of 0ft. 1025 No Significant change. Runway 16: Clear and dry, 51-100% contamination with <1mm, friction coefficient 0.70. Runway 07: Clear and dry, 51-100% contamination with <1mm, friction coefficient 0.70. UNNT 162030Z 30002MPS 0150 0100S R16/0650N R07/0650N FZFG VV001 M05/M05 Q1025 R16/090070 R07/090070 NOSIG RMK QBB050 QFE759/1012
LIFR -5°C / -5°C 310º 2kt 190m. Runway 16: Visual range is 600m. Runway 07: Visual range is 400m and increasing. freezing Fog Vertical Visibility of 0ft. 1025 No Significant change. Runway 16: Clear and dry, 51-100% contamination with <1mm, friction coefficient 0.70. Runway 07: Clear and dry, 51-100% contamination with <1mm, friction coefficient 0.70. UNNT 162000Z 31001MPS 0200 0050SE R16/0600N R07/0400U FZFG VV003 M05/M05 Q1025 R16/090070 R07/090070 NOSIG RMK QFE759/1012

VFR

9°C / 1°C

[Több]
Szél variable 2kt
Látási viszonyok >10km
Időjárás -
Felhők Clouds and Visibility OK
Légnyomás 1024
Módosítás No Significant change. Runway 25: Clear and dry, 51-100% contamination with <1mm, friction coefficient 0.70. Runway 16: Clear and dry, 51-100% contamination with <1mm, friction coefficient 0.70.
Nyers UNNT 170730Z VRB01MPS CAVOK 09/01 Q1024 R25/090070 R16/090070 NOSIG RMK QFE758/1010

VFR

7°C / 2°C

[Több]
Szél variable 2kt
Látási viszonyok 9000m
Időjárás -
Felhők Clear
Légnyomás 1024
Módosítás No Significant change. Runway 25: Clear and dry, 51-100% contamination with <1mm, friction coefficient 0.70. Runway 16: Clear and dry, 51-100% contamination with <1mm, friction coefficient 0.70.
Nyers UNNT 170700Z VRB01MPS 9000 NSC 07/02 Q1024 R25/090070 R16/090070 NOSIG RMK QFE758/1011

VFR

4°C / 3°C

[Több]
Szél variable 2kt
Látási viszonyok 9000m
Időjárás -
Felhők Clear
Légnyomás 1024
Módosítás No Significant change. Runway 25: Clear and dry, 51-100% contamination with <1mm, friction coefficient 0.70. Runway 16: Clear and dry, 51-100% contamination with <1mm, friction coefficient 0.70.
Nyers UNNT 170630Z VRB01MPS 9000 NSC 04/03 Q1024 R25/090070 R16/090070 NOSIG RMK QFE758/1011

IFR

2°C / 2°C

[Több]
Szél variable 2kt
Látási viszonyok 4700m
Időjárás Mist
Felhők Vertical Visibility of 0ft.
Légnyomás 1024
Módosítás No Significant change. Runway 25: Clear and dry, 51-100% contamination with <1mm, friction coefficient 0.70. Runway 16: Clear and dry, 51-100% contamination with <1mm, friction coefficient 0.70.
Nyers UNNT 170600Z VRB01MPS 4700 1300N BR SCT002 02/02 Q1024 R25/090070 R16/090070 NOSIG RMK QFE758/1011

LIFR

1°C / 1°C

[Több]
Szél variable 2kt
Látási viszonyok 450m. Runway 25: Visual range is 1000m and increasing.
Időjárás Fog
Felhők Vertical Visibility of 0ft.
Légnyomás 1024
Módosítás No Significant change. Runway 25: Clear and dry, 51-100% contamination with <1mm, friction coefficient 0.70. Runway 16: Clear and dry, 51-100% contamination with <1mm, friction coefficient 0.70.
Nyers UNNT 170530Z VRB01MPS 0450 0350S R25/1000U FG VV002 01/01 Q1024 R25/090070 R16/090070 NOSIG RMK QFE758/1011

LIFR

0°C / 0°C

[Több]
Szél 290º 4kt
Látási viszonyok 260m. Runway 25: Visual range is 550m.
Időjárás freezing Fog
Felhők Vertical Visibility of 0ft.
Légnyomás 1025
Módosítás No Significant change. Runway 25: Clear and dry, 51-100% contamination with <1mm, friction coefficient 0.70. Runway 16: Clear and dry, 51-100% contamination with <1mm, friction coefficient 0.70.
Nyers UNNT 170500Z 29002MPS 0250 R25/0550N FZFG VV001 M00/M00 Q1025 R25/090070 R16/090070 NOSIG RMK QBB050 QFE758/1011

LIFR

-1°C / -1°C

[Több]
Szél variable 0kt
Látási viszonyok 190m. Runway 25: Visual range is 800m.
Időjárás freezing Fog
Felhők Vertical Visibility of 0ft.
Légnyomás 1025
Módosítás No Significant change. Runway 25: Clear and dry, 51-100% contamination with <1mm, friction coefficient 0.70. Runway 16: Clear and dry, 51-100% contamination with <1mm, friction coefficient 0.70.
Nyers UNNT 170430Z 00000MPS 0200 0150SE R25/0800N FZFG VV001 M01/M01 Q1025 R25/090070 R16/090070 NOSIG RMK QBB050 QFE758/1011

LIFR

-2°C / -2°C

[Több]
Szél 330º 2kt
Látási viszonyok 140m. Runway 25: Visual range is 225m.
Időjárás freezing Fog
Felhők Vertical Visibility of 0ft.
Légnyomás 1025
Módosítás No Significant change. Runway 25: Clear and dry, 51-100% contamination with <1mm, friction coefficient 0.70. Runway 16: Clear and dry, 51-100% contamination with <1mm, friction coefficient 0.70.
Nyers UNNT 170400Z 33001MPS 0150 R25/0225N FZFG VV002 M02/M02 Q1025 R25/090070 R16/090070 NOSIG RMK QFE758/1011

LIFR

-3°C / -3°C

[Több]
Szél 290º 2kt
Látási viszonyok 190m. Runway 25: Visual range is 450m and decreasing.
Időjárás freezing Fog
Felhők Vertical Visibility of 0ft.
Légnyomás 1025
Módosítás No Significant change. Runway 25: Clear and dry, 51-100% contamination with <1mm, friction coefficient 0.70. Runway 16: Clear and dry, 51-100% contamination with <1mm, friction coefficient 0.70.
Nyers UNNT 170330Z 29001MPS 0200 0150SE R25/0450D FZFG VV001 M03/M03 Q1025 R25/090070 R16/090070 NOSIG RMK QBB050 QFE758/1011

LIFR

-4°C / -4°C

[Több]
Szél 290º 2kt
Látási viszonyok 260m. Runway 25: Visual range is 400m and decreasing.
Időjárás freezing Fog
Felhők Vertical Visibility of 0ft.
Légnyomás 1025
Módosítás No Significant change. Runway 25: Clear and dry, 51-100% contamination with <1mm, friction coefficient 0.70. Runway 16: Clear and dry, 51-100% contamination with <1mm, friction coefficient 0.70.
Nyers UNNT 170300Z 29001MPS 0250 0150E R25/0400D FZFG VV002 M04/M04 Q1025 R25/090070 R16/090070 NOSIG RMK QFE758/1011

LIFR

-4°C / -5°C

[Több]
Szél variable 0kt
Látási viszonyok 350m. Runway 25: Visual range is 750m.
Időjárás freezing Fog
Felhők Vertical Visibility of 0ft.
Légnyomás 1025
Módosítás No Significant change. Runway 25: Clear and dry, 51-100% contamination with <1mm, friction coefficient 0.70. Runway 16: Clear and dry, 51-100% contamination with <1mm, friction coefficient 0.70.
Nyers UNNT 170230Z 00000MPS 0350 0300SE R25/0750N FZFG VV001 M04/M05 Q1025 R25/090070 R16/090070 NOSIG RMK QBB050 QFE758/1011

LIFR

-5°C / -5°C

[Több]
Szél variable 0kt
Látási viszonyok 260m. Runway 16: Visual range is 325m. Runway 07: Visual range is 450m.
Időjárás freezing Fog
Felhők Vertical Visibility of 0ft.
Légnyomás 1025
Módosítás No Significant change. Runway 16: Clear and dry, 51-100% contamination with <1mm, friction coefficient 0.70. Runway 07: Clear and dry, 51-100% contamination with <1mm, friction coefficient 0.70.
Nyers UNNT 170200Z 00000MPS 0250 0150S R16/0325N R07/0450N FZFG VV001 M05/M05 Q1025 R16/090070 R07/090070 NOSIG RMK QBB040 QFE758/1011

LIFR

-6°C / -6°C

[Több]
Szél 250º 2kt
Látási viszonyok 140m. Runway 16: Visual range is 300m. Runway 07: Visual range is 200m.
Időjárás freezing Fog
Felhők Vertical Visibility of 0ft.
Légnyomás 1024
Módosítás No Significant change. Runway 16: Clear and dry, 51-100% contamination with <1mm, friction coefficient 0.70. Runway 07: Clear and dry, 51-100% contamination with <1mm, friction coefficient 0.70.
Nyers UNNT 170130Z 25001MPS 0150 R16/0300N R07/0200N FZFG VV001 M06/M06 Q1024 R16/090070 R07/090070 NOSIG RMK QBB050 QFE758/1011

LIFR

-6°C / -6°C

[Több]
Szél 260º 4kt
Látási viszonyok 190m. Runway 25: Visual range is 1100m.
Időjárás freezing Fog
Felhők Vertical Visibility of 0ft.
Légnyomás 1024
Módosítás No Significant change. Runway 25: Clear and dry, 51-100% contamination with <1mm, friction coefficient 0.70. Runway 16: Clear and dry, 51-100% contamination with <1mm, friction coefficient 0.70.
Nyers UNNT 170100Z 26002MPS 0200 0100N R25/1100N FZFG VV001 M06/M06 Q1024 R25/090070 R16/090070 NOSIG RMK QBB040 QFE758/1011

LIFR

-5°C / -6°C

[Több]
Szél variable 0kt
Látási viszonyok 100m. Runway 16: Visual range is 175m. Runway 07: Visual range is 300m.
Időjárás freezing Fog
Felhők Vertical Visibility of 0ft.
Légnyomás 1024
Módosítás No Significant change. Runway 16: Clear and dry, 51-100% contamination with <1mm, friction coefficient 0.70. Runway 07: Clear and dry, 51-100% contamination with <1mm, friction coefficient 0.70.
Nyers UNNT 170030Z 00000MPS 0100 0050S R16/0175N R07/0300N FZFG VV001 M05/M06 Q1024 R16/090070 R07/090070 NOSIG RMK QBB050 QFE758/1011

LIFR

-5°C / -6°C

[Több]
Szél variable 0kt
Látási viszonyok 260m. Runway 16: Visual range is 900m and decreasing. Runway 07: Visual range is 375m.
Időjárás freezing Fog
Felhők Vertical Visibility of 0ft.
Légnyomás 1024
Módosítás No Significant change. Runway 16: Clear and dry, 51-100% contamination with <1mm, friction coefficient 0.70. Runway 07: Clear and dry, 51-100% contamination with <1mm, friction coefficient 0.70.
Nyers UNNT 170000Z 00000MPS 0250 0100SE R16/0900D R07/0375N FZFG VV001 M05/M06 Q1024 R16/090070 R07/090070 NOSIG RMK QBB040 QFE758/1011

LIFR

-5°C / -5°C

[Több]
Szél 260º 2kt
Látási viszonyok 140m. Runway 16: Visual range is 650m. Runway 07: Visual range is 550m.
Időjárás freezing Fog
Felhők Vertical Visibility of 0ft.
Légnyomás 1024
Módosítás No Significant change. Runway 16: Clear and dry, 51-100% contamination with <1mm, friction coefficient 0.70. Runway 07: Clear and dry, 51-100% contamination with <1mm, friction coefficient 0.70.
Nyers UNNT 162330Z 26001MPS 0150 R16/0650N R07/0550N FZFG VV001 M05/M05 Q1024 R16/090070 R07/090070 NOSIG RMK QBB050 QFE758/1011

LIFR

-6°C / -6°C

[Több]
Szél variable 2kt
Látási viszonyok 140m. Runway 16: Visual range is 550m. Runway 07: Visual range is 800m.
Időjárás freezing Fog
Felhők Vertical Visibility of 0ft.
Légnyomás 1024
Módosítás No Significant change. Runway 16: Clear and dry, 51-100% contamination with <1mm, friction coefficient 0.70. Runway 07: Clear and dry, 51-100% contamination with <1mm, friction coefficient 0.70.
Nyers UNNT 162300Z VRB01MPS 0150 R16/0550N R07/0800N FZFG VV001 M06/M06 Q1024 R16/090070 R07/090070 NOSIG RMK QBB050 QFE758/1011

LIFR

-6°C / -6°C

[Több]
Szél 280º 2kt
Látási viszonyok 140m. Runway 16: Visual range is 700m and increasing. Runway 07: Visual range is 550m and increasing.
Időjárás freezing Fog
Felhők Vertical Visibility of 0ft.
Légnyomás 1024
Módosítás No Significant change. Runway 16: Clear and dry, 51-100% contamination with <1mm, friction coefficient 0.70. Runway 07: Clear and dry, 51-100% contamination with <1mm, friction coefficient 0.70.
Nyers UNNT 162230Z 28001MPS 0150 R16/0700U R07/0550U FZFG VV001 M06/M06 Q1024 R16/090070 R07/090070 NOSIG RMK QBB050 QFE758/1011

LIFR

-5°C / -6°C

[Több]
Szél 290º 2kt
Látási viszonyok 140m. Runway 16: Visual range is 750m and decreasing. Runway 07: Visual range is 600m and decreasing.
Időjárás freezing Fog
Felhők Vertical Visibility of 0ft.
Légnyomás 1024
Módosítás No Significant change. Runway 16: Clear and dry, 51-100% contamination with <1mm, friction coefficient 0.70. Runway 07: Clear and dry, 51-100% contamination with <1mm, friction coefficient 0.70.
Nyers UNNT 162200Z 29001MPS 0150 0100SE R16/0750D R07/0600D FZFG VV001 M05/M06 Q1024 R16/090070 R07/090070 NOSIG RMK QBB050 QFE758/1011

LIFR

-6°C / -6°C

[Több]
Szél 280º 2kt
Látási viszonyok 190m. Runway 16: Visual range is 650m. Runway 07: Visual range is 800m and decreasing.
Időjárás freezing Fog
Felhők Vertical Visibility of 0ft.
Légnyomás 1025
Módosítás No Significant change. Runway 16: Clear and dry, 51-100% contamination with <1mm, friction coefficient 0.70. Runway 07: Clear and dry, 51-100% contamination with <1mm, friction coefficient 0.70.
Nyers UNNT 162130Z 28001MPS 0200 0150S R16/0650N R07/0800D FZFG VV001 M06/M06 Q1025 R16/090070 R07/090070 NOSIG RMK QBB050 QFE758/1011

LIFR

-4°C / -4°C

[Több]
Szél 310º 2kt
Látási viszonyok 140m. Runway 16: Visual range is 1200m and decreasing. Runway 07: Visual range is 550m.
Időjárás freezing Fog
Felhők Vertical Visibility of 0ft.
Légnyomás 1025
Módosítás No Significant change. Runway 16: Clear and dry, 51-100% contamination with <1mm, friction coefficient 0.70. Runway 07: Clear and dry, 51-100% contamination with <1mm, friction coefficient 0.70.
Nyers UNNT 162100Z 31001MPS 0150 0100S R16/1200D R07/0550N FZFG VV001 M04/M04 Q1025 R16/090070 R07/090070 NOSIG RMK QBB040 QFE758/1011

LIFR

-5°C / -5°C

[Több]
Szél 300º 4kt
Látási viszonyok 140m. Runway 16: Visual range is 650m. Runway 07: Visual range is 650m.
Időjárás freezing Fog
Felhők Vertical Visibility of 0ft.
Légnyomás 1025
Módosítás No Significant change. Runway 16: Clear and dry, 51-100% contamination with <1mm, friction coefficient 0.70. Runway 07: Clear and dry, 51-100% contamination with <1mm, friction coefficient 0.70.
Nyers UNNT 162030Z 30002MPS 0150 0100S R16/0650N R07/0650N FZFG VV001 M05/M05 Q1025 R16/090070 R07/090070 NOSIG RMK QBB050 QFE759/1012

LIFR

-5°C / -5°C

[Több]
Szél 310º 2kt
Látási viszonyok 190m. Runway 16: Visual range is 600m. Runway 07: Visual range is 400m and increasing.
Időjárás freezing Fog
Felhők Vertical Visibility of 0ft.
Légnyomás 1025
Módosítás No Significant change. Runway 16: Clear and dry, 51-100% contamination with <1mm, friction coefficient 0.70. Runway 07: Clear and dry, 51-100% contamination with <1mm, friction coefficient 0.70.
Nyers UNNT 162000Z 31001MPS 0200 0050SE R16/0600N R07/0400U FZFG VV003 M05/M05 Q1025 R16/090070 R07/090070 NOSIG RMK QFE759/1012

TAF 55.03°É 82.6°K (UNNT)-ért

From till


From till Wind 180º 6kt. Visibility 305.775m. freezing Fog . Broken Clouds 100ft.
Temporarly from till Visibility 1500m. Mist Smoke . Broken Clouds 300ft.
Temporarly from till Visibility 305.775m. Fog Smoke . Broken Clouds 100ft.
From till Wind 220º 6kt. Visibility 6000m. Broken Clouds 4000ft.

Nyers: TAF UNNT 170500Z 1706/1806 18003MPS 0300 FZFG BKN001 TEMPO 1706/1708 1500 BR FU BKN003 FM170800 22003MPS 6000 BKN040 TEMPO 1708/1805 0300 FG FU BKN001

Aktuális műholdas és esőképek ezen a helyen: 55.03°É 82.6°K

A helyszín jelölő a következő helyen van elhelyezve: 55.03°É 82.6°K. [Több]

A valós idejű műholdas kép ötvözi a nappali látható fényt az éjszakai infravörös sugárzással. Éjjel a kép nem sötét, mivel az infravörös sugárzás képes érzékelni a hőmérséklet-különbségeket. Sajnos az alacsony felhőket és a ködöt nehéz megkülönböztetni a talaj hőmérsékletétől, így az éjszaka folyamán szinte láthatatlanok lehetnek. A Meteosat európai műholdképei valós időben frissülnek minden 5 percben. A GOES-16/GOES-17 (Észak- és Dél-Amerika) és Himawari (Ázsia) képei 10 percenként frissülnek.

Minden jog fenntartva 2021 EUMETSAT / meteoblue. / Minden jog fenntartva 2021 meteoblue

Radarkép és ultrarövid távú csapadék-előrejelzés a következő helyhez: 55.03°É 82.6°K

Szitálás
Enyhe
Mérsékelt
Erős
Nagyon nehéz
Jégeső

A helyzetjelző helye: 55.03°É 82.6°K. Ez az animáció bemutatja a csapadékradart az elmúlt órára vonatkozóan, valamint előrejelzést az elkövetkező 1 órára. A szitáló eső vagy enyhe hóesés láthatatlan lehet a radar számára. A csapadék intenzitása színkóddal van jelölve, a világoskéktől a narancssárgáig.